Abraham Baldwin College, Georgia
Current Conditions -  °F | °C
As of 12:55 AM on Thursday 18 Dec 2014 (Local Time) from KTMA Reporting Station
Clear Clear  
Wind Chill: 44°   Ceiling: Unl
Heat Index: 44°   Visibility: 10mi
Dew Point: 42°   Wind: 0mph
Humidity: 95%   Direction: NA
Pressure: 30.14"   Gusts: NA
Location:  31.4406°N, 83.464°W
Report Text: KTMA 180555Z AUTO 00000KT 10SM CLR 07/06 A3014 RMK AO2 T00650058 10246 20000 402460000
Loading
Personal Weather Stations






























Interactive Weather Map New forecast layout! Learn more

10-Day Weather Forecast

Advertisements
Track Severe Weather on mobile